createdAt,value
2018-05-16T00:00:25.978Z,58.10
2018-05-16T00:02:56.515Z,58.80
2018-05-16T00:05:27.293Z,56.10
2018-05-16T00:07:58.435Z,56.20
2018-05-16T00:10:29.013Z,56.20
2018-05-16T00:12:59.354Z,55.90
2018-05-16T00:15:29.541Z,56.30
2018-05-16T00:17:59.760Z,55.50
2018-05-16T00:20:30.123Z,54.40
2018-05-16T00:23:00.259Z,54.70
2018-05-16T00:25:30.690Z,55.20
2018-05-16T00:28:00.839Z,55.60
2018-05-16T00:30:31.811Z,57.10
2018-05-16T00:33:01.891Z,57.20
2018-05-16T00:35:32.091Z,57.10
2018-05-16T00:38:03.168Z,56.90
2018-05-16T00:40:34.490Z,56.90
2018-05-16T00:43:06.261Z,56.70
2018-05-16T00:45:37.425Z,58.20
2018-05-16T00:48:08.003Z,58.10
2018-05-16T00:50:38.447Z,57.60
2018-05-16T00:53:08.733Z,58.50
2018-05-16T00:55:38.861Z,58.10
2018-05-16T00:58:09.091Z,57.40
2018-05-16T01:00:39.305Z,56.40
2018-05-16T01:03:09.601Z,55.60
2018-05-16T01:05:39.912Z,55.50
2018-05-16T01:08:10.190Z,54.50
2018-05-16T01:10:40.090Z,53.80
2018-05-16T01:13:10.411Z,53.20
2018-05-16T01:15:40.764Z,53.60
2018-05-16T01:18:11.373Z,52.30
2018-05-16T01:20:41.586Z,51.80
2018-05-16T01:23:11.721Z,49.90
2018-05-16T01:25:41.939Z,48.90
2018-05-16T01:28:12.325Z,49.90
2018-05-16T01:30:43.255Z,50.00
2018-05-16T01:33:14.269Z,51.60
2018-05-16T01:35:44.406Z,51.50
2018-05-16T01:38:15.593Z,48.90
2018-05-16T01:40:46.249Z,49.00
2018-05-16T01:43:16.222Z,49.70
2018-05-16T01:45:53.412Z,51.00
2018-05-16T01:48:23.165Z,49.10
2018-05-16T01:50:53.835Z,48.20
2018-05-16T01:53:23.595Z,49.50
2018-05-16T01:55:53.323Z,50.20
2018-05-16T01:58:23.175Z,53.10
2018-05-16T02:00:54.963Z,51.90
2018-05-16T02:03:25.304Z,51.90
2018-05-16T02:05:55.843Z,52.80
2018-05-16T02:08:27.010Z,53.20
2018-05-16T02:10:57.623Z,57.10
2018-05-16T02:13:28.019Z,59.20
2018-05-16T02:15:59.135Z,63.00
2018-05-16T02:18:29.927Z,64.70
2018-05-16T02:21:00.385Z,65.60
2018-05-16T02:23:30.825Z,65.90
2018-05-16T02:26:15.573Z,65.50
2018-05-16T02:28:46.565Z,66.60
2018-05-16T02:31:16.940Z,66.60
2018-05-16T02:33:48.156Z,68.20
2018-05-16T02:36:18.796Z,68.10
2018-05-16T02:38:49.430Z,68.40
2018-05-16T02:41:19.628Z,69.40
2018-05-16T02:43:50.112Z,69.30
2018-05-16T02:46:21.371Z,70.60
2018-05-16T02:48:51.961Z,70.60
2018-05-16T02:51:22.091Z,70.80
2018-05-16T02:53:53.537Z,70.70
2018-05-16T02:56:24.849Z,70.70
2018-05-16T02:58:55.520Z,71.00
2018-05-16T03:01:26.220Z,71.60
2018-05-16T03:03:56.743Z,73.10
2018-05-16T03:06:28.626Z,73.50
2018-05-16T03:09:00.217Z,73.90
2018-05-16T03:11:30.831Z,74.20
2018-05-16T03:14:01.655Z,74.40
2018-05-16T03:16:32.203Z,75.10
2018-05-16T03:19:03.003Z,75.70
2018-05-16T03:21:33.386Z,76.10
2018-05-16T03:24:04.817Z,75.50
2018-05-16T03:26:34.948Z,75.40
2018-05-16T03:29:05.338Z,75.50
2018-05-16T03:31:36.058Z,76.60
2018-05-16T03:34:07.368Z,76.50
2018-05-16T03:36:40.748Z,76.90
2018-05-16T03:39:12.073Z,77.80
2018-05-16T03:41:42.894Z,77.80
2018-05-16T03:44:13.876Z,78.40
2018-05-16T03:46:45.476Z,79.10
2018-05-16T03:49:15.971Z,79.10
2018-05-16T03:51:48.954Z,80.30
2018-05-16T03:54:20.756Z,80.70
2018-05-16T03:56:51.548Z,80.70
2018-05-16T03:59:33.552Z,81.30
2018-05-16T04:02:16.096Z,82.00
2018-05-16T04:04:46.635Z,82.00
2018-05-16T04:07:16.777Z,82.90
2018-05-16T04:09:46.987Z,83.40
2018-05-16T04:12:17.824Z,84.00
2018-05-16T04:14:47.674Z,84.40
2018-05-16T04:17:18.202Z,85.30
2018-05-16T04:19:48.395Z,85.40
2018-05-16T04:22:20.565Z,85.70
2018-05-16T04:24:50.970Z,86.10
2018-05-16T04:27:20.697Z,86.30
2018-05-16T04:29:50.806Z,86.80
2018-05-16T04:32:20.891Z,87.10
2018-05-16T04:34:51.458Z,87.30
2018-05-16T04:37:21.738Z,87.00
2018-05-16T04:39:51.548Z,87.30
2018-05-16T04:42:22.941Z,87.60
2018-05-16T04:44:54.012Z,87.60
2018-05-16T04:47:23.804Z,87.60
2018-05-16T04:49:53.844Z,88.10
2018-05-16T04:52:24.255Z,88.30
2018-05-16T04:54:55.714Z,88.40
2018-05-16T04:57:25.795Z,88.20
2018-05-16T04:59:56.881Z,87.90
2018-05-16T05:02:27.731Z,88.30
2018-05-16T05:04:57.915Z,88.70
2018-05-16T05:07:28.241Z,89.00
2018-05-16T05:09:58.477Z,89.20
2018-05-16T05:12:28.792Z,89.50
2018-05-16T05:14:59.081Z,89.80
2018-05-16T05:17:29.784Z,90.00
2018-05-16T05:20:00.293Z,90.00
2018-05-16T05:22:30.541Z,90.00
2018-05-16T05:25:01.529Z,90.20
2018-05-16T05:27:31.799Z,90.20
2018-05-16T05:30:02.321Z,90.40
2018-05-16T05:32:32.699Z,90.60
2018-05-16T05:35:03.259Z,90.90
2018-05-16T05:37:33.393Z,91.10
2018-05-16T05:40:04.031Z,91.20
2018-05-16T05:42:34.135Z,91.30
2018-05-16T05:45:04.474Z,91.30
2018-05-16T05:47:34.793Z,91.50
2018-05-16T05:50:05.389Z,91.70
2018-05-16T05:52:36.127Z,91.60
2018-05-16T05:55:06.196Z,91.80
2018-05-16T05:57:36.466Z,91.70
2018-05-16T06:00:06.846Z,91.90
2018-05-16T06:02:37.250Z,92.00
2018-05-16T06:05:07.372Z,92.00
2018-05-16T06:07:37.804Z,92.10
2018-05-16T06:10:08.358Z,92.40
2018-05-16T06:12:39.625Z,92.50
2018-05-16T06:15:10.119Z,92.40
2018-05-16T06:17:40.482Z,92.40
2018-05-16T06:20:10.641Z,92.80
2018-05-16T06:22:40.959Z,92.80
2018-05-16T06:25:11.189Z,92.90
2018-05-16T06:27:41.424Z,93.20
2018-05-16T06:30:11.658Z,92.90
2018-05-16T06:32:42.891Z,93.30
2018-05-16T06:35:13.254Z,93.20
2018-05-16T06:37:43.433Z,93.00
2018-05-16T06:40:13.959Z,93.10
2018-05-16T06:42:44.151Z,93.20
2018-05-16T06:45:15.419Z,93.40
2018-05-16T06:47:46.651Z,93.20
2018-05-16T06:50:16.912Z,93.10
2018-05-16T06:52:47.213Z,93.00
2018-05-16T06:55:17.603Z,93.10
2018-05-16T06:57:48.075Z,93.00
2018-05-16T07:00:18.516Z,93.00
2018-05-16T07:02:48.785Z,93.00
2018-05-16T07:05:18.888Z,93.00
2018-05-16T07:07:49.174Z,92.60
2018-05-16T07:10:19.511Z,92.60
2018-05-16T07:12:50.485Z,92.90
2018-05-16T07:15:21.570Z,93.00
2018-05-16T07:17:52.748Z,93.00
2018-05-16T07:20:23.549Z,92.90
2018-05-16T07:22:55.253Z,93.10
2018-05-16T07:25:26.386Z,93.10
2018-05-16T07:27:56.913Z,93.10
2018-05-16T07:30:28.056Z,92.90
2018-05-16T07:32:59.408Z,93.00
2018-05-16T07:35:29.500Z,92.80
2018-05-16T07:37:59.647Z,92.90
2018-05-16T07:40:30.132Z,92.90
2018-05-16T07:43:00.550Z,92.40
2018-05-16T07:45:30.899Z,92.50
2018-05-16T07:48:01.022Z,92.90
2018-05-16T07:50:31.132Z,93.30
2018-05-16T07:53:01.432Z,92.80
2018-05-16T07:55:31.698Z,92.90
2018-05-16T07:58:01.912Z,92.90
2018-05-16T08:00:32.140Z,93.00
2018-05-16T08:03:02.649Z,93.40
2018-05-16T08:05:32.778Z,93.20
2018-05-16T08:08:02.994Z,93.40
2018-05-16T08:10:33.338Z,93.20
2018-05-16T08:13:03.724Z,93.20
2018-05-16T08:15:33.956Z,93.30
2018-05-16T08:18:04.271Z,93.30
2018-05-16T08:20:34.218Z,93.00
2018-05-16T08:23:04.348Z,93.10
2018-05-16T08:25:34.646Z,93.00
2018-05-16T08:28:04.976Z,93.30
2018-05-16T08:30:35.474Z,93.00
2018-05-16T08:33:05.641Z,93.10
2018-05-16T08:35:35.747Z,93.30
2018-05-16T08:38:06.184Z,93.30
2018-05-16T08:40:37.384Z,93.20
2018-05-16T08:43:07.588Z,93.40
2018-05-16T08:45:38.256Z,93.40
2018-05-16T08:48:08.981Z,93.50
2018-05-16T08:50:39.276Z,93.60
2018-05-16T08:53:09.782Z,93.70
2018-05-16T08:55:39.881Z,93.60
2018-05-16T08:58:09.906Z,93.60
2018-05-16T09:00:40.211Z,93.60
2018-05-16T09:03:10.732Z,93.30
2018-05-16T09:05:40.781Z,93.20
2018-05-16T09:08:10.936Z,93.30
2018-05-16T09:10:41.957Z,93.20
2018-05-16T09:13:17.534Z,93.20
2018-05-16T09:15:51.190Z,93.60
2018-05-16T09:18:37.292Z,93.60
2018-05-16T09:21:11.947Z,93.30
2018-05-16T09:23:48.506Z,93.80
2018-05-16T09:26:20.942Z,93.50
2018-05-16T09:29:04.900Z,93.40
2018-05-16T09:31:37.786Z,93.60
2018-05-16T09:34:10.597Z,93.60
2018-05-16T09:36:42.608Z,93.60
2018-05-16T09:39:16.853Z,93.40
2018-05-16T09:41:52.440Z,93.30
2018-05-16T09:44:24.165Z,93.30
2018-05-16T09:47:03.010Z,93.20
2018-05-16T09:49:33.377Z,93.20
2018-05-16T09:52:04.500Z,93.20
2018-05-16T09:54:38.828Z,93.40
2018-05-16T09:57:12.406Z,93.40
2018-05-16T09:59:50.765Z,93.70
2018-05-16T10:02:28.003Z,93.60
2018-05-16T10:04:59.282Z,93.30
2018-05-16T10:07:31.276Z,93.30
2018-05-16T10:10:02.378Z,93.40
2018-05-16T10:12:49.262Z,93.50
2018-05-16T10:15:24.111Z,93.40
2018-05-16T10:18:03.418Z,93.40
2018-05-16T10:20:33.691Z,93.10
2018-05-16T10:23:04.433Z,92.90
2018-05-16T10:25:41.189Z,93.10
2018-05-16T10:28:11.903Z,93.50
2018-05-16T10:30:52.463Z,93.10
2018-05-16T10:33:27.843Z,93.30
2018-05-16T10:35:59.734Z,93.30
2018-05-16T10:38:30.138Z,92.90
2018-05-16T10:41:12.295Z,93.00
2018-05-16T10:43:43.924Z,92.80
2018-05-16T10:46:24.010Z,92.80
2018-05-16T10:48:56.883Z,92.60
2018-05-16T10:51:37.146Z,92.60
2018-05-16T10:54:12.554Z,93.00
2018-05-16T10:56:44.500Z,93.00
2018-05-16T10:59:19.383Z,93.10
2018-05-16T11:01:58.162Z,92.80
2018-05-16T11:04:47.002Z,92.80
2018-05-16T11:07:29.851Z,92.90
2018-05-16T11:10:04.918Z,92.60
2018-05-16T11:12:34.913Z,92.60
2018-05-16T11:15:04.931Z,92.30
2018-05-16T11:17:35.427Z,92.70
2018-05-16T11:20:05.827Z,92.70
2018-05-16T11:22:36.761Z,92.90
2018-05-16T11:25:07.900Z,92.70
2018-05-16T11:27:38.077Z,92.70
2018-05-16T11:30:08.316Z,92.70
2018-05-16T11:32:38.410Z,92.70
2018-05-16T11:35:08.571Z,92.70
2018-05-16T11:37:38.719Z,92.20
2018-05-16T11:40:08.893Z,92.10
2018-05-16T11:42:39.236Z,92.30
2018-05-16T11:45:09.634Z,92.40
2018-05-16T11:47:40.039Z,92.40
2018-05-16T11:50:10.168Z,92.20
2018-05-16T11:52:40.234Z,92.10
2018-05-16T11:55:11.251Z,92.10
2018-05-16T11:57:41.563Z,92.10
2018-05-16T12:00:11.618Z,92.10
2018-05-16T12:02:42.743Z,92.40
2018-05-16T12:05:14.634Z,92.20
2018-05-16T12:07:44.879Z,92.20
2018-05-16T12:10:15.032Z,92.40
2018-05-16T12:12:45.279Z,92.20
2018-05-16T12:15:15.701Z,92.10
2018-05-16T12:17:45.993Z,92.30
2018-05-16T12:20:15.894Z,92.00
2018-05-16T12:22:46.062Z,92.30
2018-05-16T12:25:16.441Z,91.70
2018-05-16T12:27:47.091Z,91.80
2018-05-16T12:30:17.500Z,91.60
2018-05-16T12:32:48.211Z,91.40
2018-05-16T12:35:19.340Z,91.70
2018-05-16T12:37:50.328Z,91.70
2018-05-16T12:40:20.621Z,91.70
2018-05-16T12:43:02.964Z,91.60
2018-05-16T12:45:34.341Z,91.60
2018-05-16T12:48:04.531Z,91.50
2018-05-16T12:50:34.970Z,91.40
2018-05-16T12:53:06.235Z,91.10
2018-05-16T12:55:36.569Z,91.20
2018-05-16T12:58:06.672Z,91.20
2018-05-16T13:00:37.512Z,91.20
2018-05-16T13:03:07.641Z,91.20
2018-05-16T13:05:38.146Z,91.20
2018-05-16T13:08:09.119Z,91.30
2018-05-16T13:10:39.412Z,91.50
2018-05-16T13:13:09.477Z,91.70
2018-05-16T13:15:40.468Z,91.40
2018-05-16T13:18:10.864Z,91.40
2018-05-16T13:20:41.317Z,91.00
2018-05-16T13:23:12.559Z,90.90
2018-05-16T13:25:42.734Z,91.00
2018-05-16T13:28:14.181Z,90.60
2018-05-16T13:31:20.066Z,90.50
2018-05-16T13:33:50.335Z,90.40
2018-05-16T13:36:20.633Z,90.40
2018-05-16T13:38:56.716Z,90.40
2018-05-16T13:41:27.127Z,90.40
2018-05-16T13:44:02.581Z,90.40
2018-05-16T13:46:51.073Z,90.50
2018-05-16T13:49:21.971Z,90.40
2018-05-16T13:51:54.178Z,90.40
2018-05-16T13:54:38.687Z,90.50
2018-05-16T13:57:09.044Z,90.50
2018-05-16T13:59:39.571Z,90.40
2018-05-16T14:02:09.974Z,90.50
2018-05-16T14:04:40.188Z,90.30
2018-05-16T14:07:10.235Z,89.80
2018-05-16T14:09:40.713Z,89.10
2018-05-16T14:12:11.172Z,89.60
2018-05-16T14:14:41.270Z,90.00
2018-05-16T14:17:11.530Z,90.20
2018-05-16T14:19:41.854Z,90.20
2018-05-16T14:22:12.021Z,90.10
2018-05-16T14:24:42.143Z,89.60
2018-05-16T14:27:13.436Z,90.10
2018-05-16T14:29:43.972Z,90.10
2018-05-16T14:32:14.447Z,90.00
2018-05-16T14:34:45.057Z,90.30
2018-05-16T14:37:15.644Z,89.50
2018-05-16T14:39:46.018Z,90.20
2018-05-16T14:42:16.334Z,88.70
2018-05-16T14:44:46.812Z,88.80
2018-05-16T14:47:17.306Z,87.80
2018-05-16T14:49:48.437Z,88.80
2018-05-16T14:52:19.925Z,89.20
2018-05-16T14:54:50.464Z,89.20
2018-05-16T14:57:20.980Z,89.10
2018-05-16T14:59:51.396Z,89.80
2018-05-16T15:02:23.454Z,89.50
2018-05-16T15:04:55.239Z,89.80
2018-05-16T15:07:26.831Z,89.70
2018-05-16T15:09:58.125Z,89.60
2018-05-16T15:12:27.987Z,88.30
2018-05-16T15:14:57.847Z,88.10
2018-05-16T15:17:28.354Z,87.20
2018-05-16T15:19:58.294Z,87.20
2018-05-16T15:22:28.125Z,87.00
2018-05-16T15:24:58.876Z,86.40
2018-05-16T15:27:29.483Z,87.00
2018-05-16T15:29:59.998Z,87.80
2018-05-16T15:32:31.537Z,86.50
2018-05-16T15:35:03.408Z,85.80
2018-05-16T15:37:34.709Z,83.70
2018-05-16T15:40:06.162Z,83.70
2018-05-16T15:42:37.689Z,83.70
2018-05-16T15:45:09.651Z,82.60
2018-05-16T15:47:40.150Z,82.60
2018-05-16T15:50:10.465Z,81.90
2018-05-16T15:52:40.882Z,84.20
2018-05-16T15:55:11.381Z,83.90
2018-05-16T15:57:42.279Z,83.80
2018-05-16T16:00:13.360Z,82.70
2018-05-16T16:02:44.000Z,83.20
2018-05-16T16:05:15.378Z,83.40
2018-05-16T16:07:45.716Z,83.40
2018-05-16T16:10:16.638Z,81.30
2018-05-16T16:12:47.494Z,81.10
2018-05-16T16:15:19.228Z,80.40
2018-05-16T16:17:49.698Z,80.40
2018-05-16T16:20:20.379Z,81.30
2018-05-16T16:22:51.424Z,81.40
2018-05-16T16:25:22.016Z,79.70
2018-05-16T16:27:52.341Z,81.00
2018-05-16T16:30:22.931Z,78.10
2018-05-16T16:32:53.360Z,77.60
2018-05-16T16:35:23.622Z,78.00
2018-05-16T16:37:53.682Z,78.50
2018-05-16T16:40:23.965Z,78.10
2018-05-16T16:42:54.340Z,78.30
2018-05-16T16:45:24.193Z,78.70
2018-05-16T16:47:55.625Z,79.70
2018-05-16T16:50:26.288Z,78.20
2018-05-16T16:52:57.072Z,77.00
2018-05-16T16:55:27.330Z,76.40
2018-05-16T16:57:57.882Z,76.30
2018-05-16T17:00:28.081Z,76.30
2018-05-16T17:02:59.163Z,75.60
2018-05-16T17:05:29.786Z,75.50
2018-05-16T17:07:59.567Z,77.00
2018-05-16T17:10:30.122Z,76.60
2018-05-16T17:12:59.944Z,76.60
2018-05-16T17:15:29.668Z,76.10
2018-05-16T17:17:59.381Z,75.90
2018-05-16T17:20:29.168Z,75.40
2018-05-16T17:22:59.761Z,75.90
2018-05-16T17:25:29.485Z,76.50
2018-05-16T17:28:00.115Z,76.40
2018-05-16T17:30:31.513Z,76.30
2018-05-16T17:33:02.402Z,76.20
2018-05-16T17:35:33.013Z,76.90
2018-05-16T17:38:02.788Z,78.80
2018-05-16T17:40:32.547Z,76.80
2018-05-16T17:43:03.850Z,75.00
2018-05-16T17:45:34.474Z,74.80
2018-05-16T17:48:04.228Z,75.70
2018-05-16T17:50:34.012Z,74.30
2018-05-16T17:53:04.607Z,73.40
2018-05-16T17:55:35.168Z,74.50
2018-05-16T17:58:04.964Z,74.10
2018-05-16T18:00:34.859Z,73.10
2018-05-16T18:03:05.468Z,74.20
2018-05-16T18:05:35.171Z,74.20
2018-05-16T18:08:04.918Z,76.40
2018-05-16T18:10:35.763Z,75.30
2018-05-16T18:16:27.884Z,73.50
2018-05-16T18:18:59.402Z,72.60
2018-05-16T18:21:29.643Z,72.60
2018-05-16T18:24:00.546Z,72.60
2018-05-16T18:26:30.309Z,73.50
2018-05-16T18:29:00.223Z,74.20
2018-05-16T18:31:29.961Z,73.00
2018-05-16T18:34:00.765Z,73.90
2018-05-16T18:36:30.563Z,73.60
2018-05-16T18:39:00.365Z,72.60
2018-05-16T18:41:30.281Z,71.10
2018-05-16T18:44:00.037Z,72.50
2018-05-16T18:46:30.554Z,71.30
2018-05-16T18:49:00.367Z,71.20
2018-05-16T18:51:30.754Z,69.70
2018-05-16T18:54:02.533Z,66.40
2018-05-16T18:56:33.365Z,66.40
2018-05-16T18:59:03.706Z,66.20
2018-05-16T19:01:33.995Z,67.40
2018-05-16T19:04:04.492Z,66.20
2018-05-16T19:06:35.681Z,67.70
2018-05-16T19:09:06.763Z,67.90
2018-05-16T19:11:37.315Z,65.80
2018-05-16T19:14:07.173Z,65.90
2018-05-16T19:16:36.882Z,66.50
2018-05-16T19:19:06.575Z,67.20
2018-05-16T19:21:36.320Z,66.90
2018-05-16T19:24:06.407Z,67.00
2018-05-16T19:26:36.159Z,65.30
2018-05-16T19:29:05.897Z,63.90
2018-05-16T19:31:35.614Z,63.10
2018-05-16T19:34:06.005Z,64.20
2018-05-16T19:36:36.561Z,62.90
2018-05-16T19:39:06.663Z,62.90
2018-05-16T19:41:37.184Z,62.70
2018-05-16T19:44:06.959Z,62.70
2018-05-16T19:46:36.843Z,64.60
2018-05-16T19:49:06.588Z,64.70
2018-05-16T19:51:36.389Z,65.00
2018-05-16T19:54:06.229Z,65.60
2018-05-16T19:56:35.988Z,64.90
2018-05-16T19:59:05.812Z,62.00
2018-05-16T20:01:35.632Z,61.80
2018-05-16T20:04:05.331Z,63.50
2018-05-16T20:06:35.034Z,64.80
2018-05-16T20:09:06.213Z,63.80
2018-05-16T20:11:35.954Z,64.10
2018-05-16T20:14:05.675Z,63.70
2018-05-16T20:16:35.389Z,63.80
2018-05-16T20:19:05.195Z,60.00
2018-05-16T20:21:35.707Z,62.10
2018-05-16T20:24:05.581Z,62.20
2018-05-16T20:26:35.395Z,61.30
2018-05-16T20:29:05.161Z,60.80
2018-05-16T20:31:35.021Z,63.10
2018-05-16T20:34:04.812Z,62.70
2018-05-16T20:36:34.603Z,63.10
2018-05-16T20:39:04.623Z,63.70
2018-05-16T20:41:34.553Z,63.50
2018-05-16T20:44:04.375Z,64.90
2018-05-16T20:46:34.500Z,65.10
2018-05-16T20:49:04.315Z,63.60
2018-05-16T20:51:34.041Z,61.90
2018-05-16T20:54:03.894Z,61.50
2018-05-16T20:56:34.454Z,63.50
2018-05-16T20:59:04.232Z,63.50
2018-05-16T21:01:33.975Z,61.70
2018-05-16T21:04:03.776Z,64.10
2018-05-16T21:06:33.811Z,61.80
2018-05-16T21:09:03.780Z,62.50
2018-05-16T21:11:33.587Z,63.30
2018-05-16T21:14:03.314Z,62.10
2018-05-16T21:16:33.822Z,61.70
2018-05-16T21:19:03.618Z,61.60
2018-05-16T21:21:33.379Z,63.40
2018-05-16T21:24:04.438Z,63.30
2018-05-16T21:26:34.260Z,60.70
2018-05-16T21:29:04.780Z,61.50
2018-05-16T21:31:34.682Z,61.40
2018-05-16T21:34:04.510Z,59.90
2018-05-16T21:36:35.217Z,58.70
2018-05-16T21:39:05.259Z,58.70
2018-05-16T21:41:36.730Z,59.30
2018-05-16T21:44:06.556Z,59.30
2018-05-16T21:46:36.274Z,59.60
2018-05-16T21:49:05.956Z,59.10
2018-05-16T21:51:36.451Z,59.20
2018-05-16T21:54:07.202Z,59.20
2018-05-16T21:56:37.057Z,58.70
2018-05-16T21:59:06.829Z,57.60
2018-05-16T22:01:36.721Z,59.60
2018-05-16T22:04:06.477Z,58.40
2018-05-16T22:06:36.186Z,59.10
2018-05-16T22:09:07.234Z,57.50
2018-05-16T22:11:37.024Z,57.60
2018-05-16T22:14:07.004Z,57.80
2018-05-16T22:16:36.786Z,58.70
2018-05-16T22:19:06.549Z,57.40
2018-05-16T22:21:37.093Z,55.70
2018-05-16T22:24:07.624Z,55.80
2018-05-16T22:26:37.636Z,55.80
2018-05-16T22:29:08.233Z,54.00
2018-05-16T22:31:43.206Z,54.00
2018-05-16T22:34:18.382Z,53.60
2018-05-16T22:36:53.433Z,53.60
2018-05-16T22:39:28.484Z,54.30
2018-05-16T22:42:03.317Z,55.50
2018-05-16T22:44:34.792Z,56.10
2018-05-16T22:47:05.999Z,56.30
2018-05-16T22:49:35.773Z,56.20
2018-05-16T22:52:05.609Z,56.10
2018-05-16T22:54:35.410Z,54.30
2018-05-16T22:57:05.284Z,54.60
2018-05-16T22:59:35.880Z,54.10
2018-05-16T23:02:05.837Z,54.00
2018-05-16T23:04:36.411Z,53.50
2018-05-16T23:07:06.172Z,53.50
2018-05-16T23:09:37.130Z,53.50
2018-05-16T23:12:07.686Z,53.50
2018-05-16T23:14:37.630Z,54.00
2018-05-16T23:17:08.666Z,52.20
2018-05-16T23:19:39.522Z,51.90
2018-05-16T23:22:11.252Z,51.90
2018-05-16T23:24:42.130Z,52.50
2018-05-16T23:27:13.430Z,53.80
2018-05-16T23:29:44.227Z,53.40
2018-05-16T23:32:16.478Z,51.90
2018-05-16T23:34:46.786Z,51.80
2018-05-16T23:37:16.955Z,51.50
2018-05-16T23:39:47.448Z,50.20
2018-05-16T23:42:19.072Z,49.40
2018-05-16T23:44:49.130Z,51.80
2018-05-16T23:47:19.484Z,52.50
2018-05-16T23:49:50.460Z,50.70
2018-05-16T23:52:20.466Z,50.70
2018-05-16T23:54:50.659Z,53.10
2018-05-16T23:57:20.815Z,53.60
2018-05-16T23:59:51.149Z,54.40
